This is the latest recevied weather packets stored in our database for station/object N6GPM. If no packets are shown the sender has not sent any weather packets the latest 10 day(s).
| Time | Temp. | Humidity | Pressure | Rain* | Wind** | Luminosity | Snow |
|---|---|---|---|---|---|---|---|
| 1777666116 | 21.11° C | 64% | 1017.2 hPa | 0 mm | - | 736 W/m² | - |
| 1777665814 | 21.11° C | 65% | 1017 hPa | 0 mm | - | 726 W/m² | - |
| 1777664296 | 21.11° C | 65% | 1017.4 hPa | 0 mm | - | 755 W/m² | - |
| 1777663995 | 20.56° C | 65% | 1017.3 hPa | 0 mm | - | 758 W/m² | - |
| 1777662783 | 20° C | 68% | 1017.6 hPa | 0 mm | - | 713 W/m² | - |
| 1777661263 | 19.44° C | 70% | 1017.7 hPa | 0 mm | - | 823 W/m² | - |
| 1777660654 | 18.89° C | 70% | 1018.1 hPa | 0 mm | - | 847 W/m² | - |
| 1777660352 | 18.33° C | 73% | 1018 hPa | 0 mm | - | 838 W/m² | - |
| 1777660048 | 18.33° C | 74% | 1018.1 hPa | 0 mm | - | 844 W/m² | - |
| 1777659745 | 18.33° C | 74% | 1018.1 hPa | 0 mm | - | 830 W/m² | - |
| 1777659442 | 17.78° C | 74% | 1018.2 hPa | 0 mm | - | 863 W/m² | - |
| 1777659139 | 17.78° C | 73% | 1018.3 hPa | 0 mm | - | 882 W/m² | - |
| 1777658837 | 17.78° C | 73% | 1018.3 hPa | 0 mm | - | 879 W/m² | - |
| 1777657018 | 17.22° C | 75% | 1018.5 hPa | 0 mm | - | 808 W/m² | - |
| 1777656715 | 16.67° C | 76% | 1018.3 hPa | 0 mm | - | 801 W/m² | - |
| 1777656411 | 16.67° C | 75% | 1018.4 hPa | 0 mm | - | 797 W/m² | - |
| 1777656106 | 16.67° C | 77% | 1018.4 hPa | 0 mm | - | 813 W/m² | - |
| 1777655802 | 16.67° C | 77% | 1018.4 hPa | 0 mm | - | 768 W/m² | - |
| 1777655499 | 15.56° C | 80% | 1018.4 hPa | 0 mm | - | 709 W/m² | - |
| 1777655197 | 15.56° C | 79% | 1018.5 hPa | 0 mm | - | 788 W/m² | - |
| 1777654591 | 15° C | 82% | 1018.2 hPa | 0 mm | - | 502 W/m² | - |
| 1777653379 | 13.89° C | 86% | 1018.1 hPa | 0 mm | - | 273 W/m² | - |
| 1777653076 | 13.89° C | 86% | 1018.6 hPa | 0 mm | - | 235 W/m² | - |
| 1777652772 | 13.89° C | 87% | 1018.5 hPa | 0 mm | - | 220 W/m² | - |
| 1777652469 | 13.33° C | 88% | 1018.3 hPa | 0 mm | - | 209 W/m² | - |
* Rain latest hour (hover to see other rain measurements)
** Current wind speed in m/s (hover to see current wind gust speed)